Terminal Aerodrome Forecast
Issued by NWS Mt. Holly, NJ

Home | Current Version | Previous Version | Text Only | Print | Product List | Glossary On
Versions: 1 2 3 4 5 6 7 8 9 10 11 12 13 14 15 16 17 18 19 20 21 22 23 24
009
FTUS41 KPHI 090158 AAA
TAFTTN
TAF AMD
KTTN 090158Z 0902/0924 29014KT P6SM SKC
     FM091400 30012G24KT P6SM SCT050
     FM092200 30009KT P6SM FEW050=

USA.gov is the U.S. government's official web portal to all federal, state and local government web resources and services.